sensor_id;sensor_type;location;lat;lon;timestamp;pressure;altitude;pressure_sealevel;temperature;humidity
2000;BME280;1001;48.87406500;9.59633600;2022-11-20T00:00:17;94498.25;;;5.19;100.00
2000;BME280;1001;48.87406500;9.59633600;2022-11-20T00:03:13;94491.94;;;5.15;100.00
2000;BME280;1001;48.87406500;9.59633600;2022-11-20T00:05:51;94501.91;;;5.12;100.00
2000;BME280;1001;48.87406500;9.59633600;2022-11-20T00:08:23;94497.34;;;5.07;100.00
2000;BME280;1001;48.87406500;9.59633600;2022-11-20T00:10:56;94493.97;;;5.07;100.00
2000;BME280;1001;48.87406500;9.59633600;2022-11-20T00:13:26;94501.91;;;5.12;100.00
2000;BME280;1001;48.87406500;9.59633600;2022-11-20T00:15:59;94495.91;;;5.11;100.00
2000;BME280;1001;48.87406500;9.59633600;2022-11-20T00:18:39;94497.75;;;5.04;100.00
2000;BME280;1001;48.87406500;9.59633600;2022-11-20T00:21:39;94491.41;;;5.00;100.00
2000;BME280;1001;48.87406500;9.59633600;2022-11-20T00:24:28;94498.56;;;5.05;100.00
2000;BME280;1001;48.87406500;9.59633600;2022-11-20T00:27:06;94501.16;;;5.05;100.00
2000;BME280;1001;48.87406500;9.59633600;2022-11-20T00:30:01;94493.22;;;5.00;100.00
2000;BME280;1001;48.87406500;9.59633600;2022-11-20T00:32:56;94504.31;;;5.07;100.00
2000;BME280;1001;48.87406500;9.59633600;2022-11-20T00:35:32;94492.56;;;5.04;100.00
2000;BME280;1001;48.87406500;9.59633600;2022-11-20T00:38:32;94497.56;;;5.06;100.00
2000;BME280;1001;48.87406500;9.59633600;2022-11-20T00:41:09;94491.00;;;5.03;100.00
2000;BME280;1001;48.87406500;9.59633600;2022-11-20T00:43:50;94492.78;;;5.03;100.00
2000;BME280;1001;48.87406500;9.59633600;2022-11-20T00:46:37;94492.03;;;4.96;100.00
2000;BME280;1001;48.87406500;9.59633600;2022-11-20T00:49:24;94494.22;;;4.99;100.00
2000;BME280;1001;48.87406500;9.59633600;2022-11-20T00:52:07;94498.81;;;4.97;100.00
2000;BME280;1001;48.87406500;9.59633600;2022-11-20T00:54:53;94497.47;;;4.88;100.00
2000;BME280;1001;48.87406500;9.59633600;2022-11-20T01:00:51;94498.84;;;4.90;100.00
2000;BME280;1001;48.87406500;9.59633600;2022-11-20T01:03:39;94506.25;;;4.87;100.00
2000;BME280;1001;48.87406500;9.59633600;2022-11-20T01:06:16;94506.44;;;4.85;100.00
2000;BME280;1001;48.87406500;9.59633600;2022-11-20T01:08:56;94504.66;;;4.86;100.00
2000;BME280;1001;48.87406500;9.59633600;2022-11-20T01:11:50;94498.47;;;4.87;100.00
2000;BME280;1001;48.87406500;9.59633600;2022-11-20T01:14:32;94513.00;;;4.88;100.00
2000;BME280;1001;48.87406500;9.59633600;2022-11-20T01:17:30;94503.41;;;4.95;100.00
2000;BME280;1001;48.87406500;9.59633600;2022-11-20T01:20:06;94509.38;;;4.95;100.00
2000;BME280;1001;48.87406500;9.59633600;2022-11-20T01:22:46;94515.53;;;5.01;100.00
2000;BME280;1001;48.87406500;9.59633600;2022-11-20T01:25:15;94523.09;;;5.02;100.00
2000;BME280;1001;48.87406500;9.59633600;2022-11-20T01:28:03;94521.75;;;4.93;100.00
2000;BME280;1001;48.87406500;9.59633600;2022-11-20T01:30:53;94521.38;;;4.90;100.00
2000;BME280;1001;48.87406500;9.59633600;2022-11-20T01:33:26;94526.94;;;4.93;100.00
2000;BME280;1001;48.87406500;9.59633600;2022-11-20T01:36:20;94521.53;;;4.95;100.00
2000;BME280;1001;48.87406500;9.59633600;2022-11-20T01:38:55;94521.53;;;4.95;100.00
2000;BME280;1001;48.87406500;9.59633600;2022-11-20T01:41:31;94518.75;;;4.96;100.00
2000;BME280;1001;48.87406500;9.59633600;2022-11-20T01:44:18;94523.53;;;4.93;100.00
2000;BME280;1001;48.87406500;9.59633600;2022-11-20T01:47:02;94520.94;;;4.93;100.00
2000;BME280;1001;48.87406500;9.59633600;2022-11-20T01:49:39;94521.16;;;4.91;100.00
2000;BME280;1001;48.87406500;9.59633600;2022-11-20T01:52:18;94517.19;;;4.89;100.00
2000;BME280;1001;48.87406500;9.59633600;2022-11-20T01:54:51;94512.63;;;4.84;100.00
2000;BME280;1001;48.87406500;9.59633600;2022-11-20T01:57:30;94519.38;;;4.85;100.00
2000;BME280;1001;48.87406500;9.59633600;2022-11-20T02:00:09;94516.97;;;4.90;100.00
2000;BME280;1001;48.87406500;9.59633600;2022-11-20T02:02:38;94515.59;;;4.88;100.00
2000;BME280;1001;48.87406500;9.59633600;2022-11-20T02:05:14;94523.97;;;4.90;100.00
2000;BME280;1001;48.87406500;9.59633600;2022-11-20T02:07:43;94523.59;;;4.86;100.00
2000;BME280;1001;48.87406500;9.59633600;2022-11-20T02:10:20;94516.34;;;4.95;100.00
2000;BME280;1001;48.87406500;9.59633600;2022-11-20T02:12:58;94518.78;;;4.90;100.00
2000;BME280;1001;48.87406500;9.59633600;2022-11-20T02:15:49;94504.13;;;4.77;100.00
2000;BME280;1001;48.87406500;9.59633600;2022-11-20T02:18:19;94510.69;;;4.79;100.00
2000;BME280;1001;48.87406500;9.59633600;2022-11-20T02:20:48;94511.31;;;4.75;100.00
2000;BME280;1001;48.87406500;9.59633600;2022-11-20T02:23:20;94499.97;;;4.69;100.00
2000;BME280;1001;48.87406500;9.59633600;2022-11-20T02:25:52;94504.56;;;4.67;100.00
2000;BME280;1001;48.87406500;9.59633600;2022-11-20T02:28:23;94507.38;;;4.66;100.00
2000;BME280;1001;48.87406500;9.59633600;2022-11-20T02:30:50;94498.78;;;4.65;100.00
2000;BME280;1001;48.87406500;9.59633600;2022-11-20T02:33:20;94511.31;;;4.75;100.00
2000;BME280;1001;48.87406500;9.59633600;2022-11-20T02:35:47;94502.19;;;4.66;100.00
2000;BME280;1001;48.87406500;9.59633600;2022-11-20T02:38:25;94516.03;;;4.78;100.00
2000;BME280;1001;48.87406500;9.59633600;2022-11-20T02:41:13;94506.75;;;4.64;100.00
2000;BME280;1001;48.87406500;9.59633600;2022-11-20T02:43:45;94505.72;;;4.71;100.00
2000;BME280;1001;48.87406500;9.59633600;2022-11-20T02:46:18;94512.28;;;4.74;100.00
2000;BME280;1001;48.87406500;9.59633600;2022-11-20T02:48:48;94514.06;;;4.73;100.00
2000;BME280;1001;48.87406500;9.59633600;2022-11-20T02:51:14;94520.63;;;4.76;100.00
2000;BME280;1001;48.87406500;9.59633600;2022-11-20T02:53:42;94520.06;;;4.74;100.00
2000;BME280;1001;48.87406500;9.59633600;2022-11-20T02:56:12;94508.75;;;4.68;100.00
2000;BME280;1001;48.87406500;9.59633600;2022-11-20T02:58:42;94515.72;;;4.68;100.00
2000;BME280;1001;48.87406500;9.59633600;2022-11-20T03:01:08;94506.38;;;4.60;100.00
2000;BME280;1001;48.87406500;9.59633600;2022-11-20T03:03:37;94518.88;;;4.70;100.00
2000;BME280;1001;48.87406500;9.59633600;2022-11-20T03:06:04;94503.00;;;4.60;100.00
2000;BME280;1001;48.87406500;9.59633600;2022-11-20T03:08:33;94510.72;;;4.66;100.00
2000;BME280;1001;48.87406500;9.59633600;2022-11-20T03:11:03;94519.28;;;4.67;100.00
2000;BME280;1001;48.87406500;9.59633600;2022-11-20T03:13:31;94515.94;;;4.60;100.00
2000;BME280;1001;48.87406500;9.59633600;2022-11-20T03:16:03;94515.72;;;4.68;100.00
2000;BME280;1001;48.87406500;9.59633600;2022-11-20T03:18:33;94512.94;;;4.63;100.00
2000;BME280;1001;48.87406500;9.59633600;2022-11-20T03:21:07;94508.97;;;4.60;100.00
2000;BME280;1001;48.87406500;9.59633600;2022-11-20T03:23:40;94517.31;;;4.62;100.00
2000;BME280;1001;48.87406500;9.59633600;2022-11-20T03:26:22;94518.34;;;4.55;100.00
2000;BME280;1001;48.87406500;9.59633600;2022-11-20T03:28:52;94506.16;;;4.62;100.00
2000;BME280;1001;48.87406500;9.59633600;2022-11-20T03:31:23;94522.47;;;4.69;100.00
2000;BME280;1001;48.87406500;9.59633600;2022-11-20T03:33:51;94514.91;;;4.67;100.00
2000;BME280;1001;48.87406500;9.59633600;2022-11-20T03:36:19;94503.56;;;4.62;100.00
2000;BME280;1001;48.87406500;9.59633600;2022-11-20T03:38:46;94521.69;;;4.62;100.00
2000;BME280;1001;48.87406500;9.59633600;2022-11-20T03:41:17;94517.72;;;4.66;100.00
2000;BME280;1001;48.87406500;9.59633600;2022-11-20T03:43:51;94507.56;;;4.64;100.00
2000;BME280;1001;48.87406500;9.59633600;2022-11-20T03:46:18;94500.41;;;4.60;100.00
2000;BME280;1001;48.87406500;9.59633600;2022-11-20T03:48:45;94503.22;;;4.58;100.00
2000;BME280;1001;48.87406500;9.59633600;2022-11-20T03:51:14;94501.81;;;4.56;100.00
2000;BME280;1001;48.87406500;9.59633600;2022-11-20T03:53:43;94498.56;;;4.67;100.00
2000;BME280;1001;48.87406500;9.59633600;2022-11-20T03:56:14;94501.00;;;4.62;100.00
2000;BME280;1001;48.87406500;9.59633600;2022-11-20T03:58:42;94490.09;;;4.53;100.00
2000;BME280;1001;48.87406500;9.59633600;2022-11-20T04:01:13;94503.41;;;4.57;100.00
2000;BME280;1001;48.87406500;9.59633600;2022-11-20T04:03:41;94496.25;;;4.59;100.00
2000;BME280;1001;48.87406500;9.59633600;2022-11-20T04:06:10;94500.19;;;4.61;100.00
2000;BME280;1001;48.87406500;9.59633600;2022-11-20T04:08:37;94505.19;;;4.63;100.00
2000;BME280;1001;48.87406500;9.59633600;2022-11-20T04:11:11;94507.56;;;4.64;100.00
2000;BME280;1001;48.87406500;9.59633600;2022-11-20T04:13:38;94506.97;;;4.62;100.00
2000;BME280;1001;48.87406500;9.59633600;2022-11-20T04:16:10;94493.44;;;4.60;100.00
2000;BME280;1001;48.87406500;9.59633600;2022-11-20T04:18:37;94497.81;;;4.60;100.00
2000;BME280;1001;48.87406500;9.59633600;2022-11-20T04:21:05;94497.19;;;4.64;100.00
2000;BME280;1001;48.87406500;9.59633600;2022-11-20T04:23:32;94503.97;;;4.65;100.00
2000;BME280;1001;48.87406500;9.59633600;2022-11-20T04:26:03;94498.75;;;4.72;100.00
2000;BME280;1001;48.87406500;9.59633600;2022-11-20T04:28:30;94492.03;;;4.64;100.00
2000;BME280;1001;48.87406500;9.59633600;2022-11-20T04:31:07;94488.63;;;4.64;100.00
2000;BME280;1001;48.87406500;9.59633600;2022-11-20T04:33:36;94488.31;;;4.54;100.00
2000;BME280;1001;48.87406500;9.59633600;2022-11-20T04:36:05;94494.78;;;4.69;100.00
2000;BME280;1001;48.87406500;9.59633600;2022-11-20T04:38:33;94496.41;;;4.64;100.00
2000;BME280;1001;48.87406500;9.59633600;2022-11-20T04:41:01;94494.03;;;4.62;100.00
2000;BME280;1001;48.87406500;9.59633600;2022-11-20T04:43:29;94489.84;;;4.61;100.00
2000;BME280;1001;48.87406500;9.59633600;2022-11-20T04:45:57;94490.84;;;4.60;100.00
2000;BME280;1001;48.87406500;9.59633600;2022-11-20T04:48:25;94499.59;;;4.59;100.00
2000;BME280;1001;48.87406500;9.59633600;2022-11-20T04:50:53;94504.00;;;4.59;100.00
2000;BME280;1001;48.87406500;9.59633600;2022-11-20T04:53:21;94498.22;;;4.57;100.00
2000;BME280;1001;48.87406500;9.59633600;2022-11-20T04:55:48;94494.06;;;4.56;100.00
2000;BME280;1001;48.87406500;9.59633600;2022-11-20T04:58:15;94486.88;;;4.58;100.00
2000;BME280;1001;48.87406500;9.59633600;2022-11-20T05:00:45;94493.81;;;4.64;100.00
2000;BME280;1001;48.87406500;9.59633600;2022-11-20T05:03:11;94495.19;;;4.66;100.00
2000;BME280;1001;48.87406500;9.59633600;2022-11-20T05:05:38;94495.41;;;4.65;100.00
2000;BME280;1001;48.87406500;9.59633600;2022-11-20T05:08:06;94498.78;;;4.65;100.00
2000;BME280;1001;48.87406500;9.59633600;2022-11-20T05:10:33;94492.25;;;4.63;100.00
2000;BME280;1001;48.87406500;9.59633600;2022-11-20T05:12:59;94489.84;;;4.61;100.00
2000;BME280;1001;48.87406500;9.59633600;2022-11-20T05:15:26;94485.69;;;4.60;100.00
2000;BME280;1001;48.87406500;9.59633600;2022-11-20T05:17:54;94489.25;;;4.59;100.00
2000;BME280;1001;48.87406500;9.59633600;2022-11-20T05:20:21;94489.47;;;4.58;100.00
2000;BME280;1001;48.87406500;9.59633600;2022-11-20T05:22:48;94493.84;;;4.57;100.00
2000;BME280;1001;48.87406500;9.59633600;2022-11-20T05:25:16;94501.44;;;4.59;100.00
2000;BME280;1001;48.87406500;9.59633600;2022-11-20T05:27:45;94495.44;;;4.58;100.00
2000;BME280;1001;48.87406500;9.59633600;2022-11-20T05:30:13;94501.38;;;4.65;100.00
2000;BME280;1001;48.87406500;9.59633600;2022-11-20T05:32:40;94492.63;;;4.60;100.00
2000;BME280;1001;48.87406500;9.59633600;2022-11-20T05:35:07;94493.44;;;4.60;100.00
2000;BME280;1001;48.87406500;9.59633600;2022-11-20T05:37:33;94499.97;;;4.69;100.00
2000;BME280;1001;48.87406500;9.59633600;2022-11-20T05:40:00;94509.13;;;4.72;100.00
2000;BME280;1001;48.87406500;9.59633600;2022-11-20T05:42:32;94493.81;;;4.64;100.00
2000;BME280;1001;48.87406500;9.59633600;2022-11-20T05:45:00;94499.97;;;4.69;100.00
2000;BME280;1001;48.87406500;9.59633600;2022-11-20T05:47:30;94492.63;;;4.60;100.00
2000;BME280;1001;48.87406500;9.59633600;2022-11-20T05:49:57;94491.84;;;4.59;100.00
2000;BME280;1001;48.87406500;9.59633600;2022-11-20T05:52:24;94491.44;;;4.62;100.00
2000;BME280;1001;48.87406500;9.59633600;2022-11-20T05:54:53;94491.44;;;4.62;100.00
2000;BME280;1001;48.87406500;9.59633600;2022-11-20T05:57:20;94495.19;;;4.66;100.00
2000;BME280;1001;48.87406500;9.59633600;2022-11-20T05:59:48;94493.41;;;4.67;100.00
2000;BME280;1001;48.87406500;9.59633600;2022-11-20T06:02:14;94498.22;;;4.63;100.00
2000;BME280;1001;48.87406500;9.59633600;2022-11-20T06:04:41;94494.41;;;4.66;100.00
2000;BME280;1001;48.87406500;9.59633600;2022-11-20T06:07:08;94492.03;;;4.64;100.00
2000;BME280;1001;48.87406500;9.59633600;2022-11-20T06:09:34;94496.97;;;4.72;100.00
2000;BME280;1001;48.87406500;9.59633600;2022-11-20T06:12:01;94493.97;;;4.69;100.00
2000;BME280;1001;48.87406500;9.59633600;2022-11-20T06:14:28;94499.59;;;4.66;100.00
2000;BME280;1001;48.87406500;9.59633600;2022-11-20T06:16:56;94493.41;;;4.67;100.00
2000;BME280;1001;48.87406500;9.59633600;2022-11-20T06:19:22;94493.00;;;4.70;100.00
2000;BME280;1001;48.87406500;9.59633600;2022-11-20T06:21:49;94490.78;;;4.73;100.00
2000;BME280;1001;48.87406500;9.59633600;2022-11-20T06:24:16;94498.97;;;4.70;100.00
2000;BME280;1001;48.87406500;9.59633600;2022-11-20T06:26:43;94489.81;;;4.68;100.00
2000;BME280;1001;48.87406500;9.59633600;2022-11-20T06:29:10;94489.06;;;4.61;100.00
2000;BME280;1001;48.87406500;9.59633600;2022-11-20T06:31:37;94491.66;;;4.61;100.00
2000;BME280;1001;48.87406500;9.59633600;2022-11-20T06:34:05;94489.47;;;4.58;100.00
2000;BME280;1001;48.87406500;9.59633600;2022-11-20T06:36:32;94486.66;;;4.59;100.00
2000;BME280;1001;48.87406500;9.59633600;2022-11-20T06:39:00;94492.63;;;4.60;100.00
2000;BME280;1001;48.87406500;9.59633600;2022-11-20T06:41:26;94486.66;;;4.66;100.00
2000;BME280;1001;48.87406500;9.59633600;2022-11-20T06:43:54;94488.03;;;4.68;100.00
2000;BME280;1001;48.87406500;9.59633600;2022-11-20T06:46:21;94491.25;;;4.57;100.00
2000;BME280;1001;48.87406500;9.59633600;2022-11-20T06:48:50;94496.00;;;4.67;100.00
2000;BME280;1001;48.87406500;9.59633600;2022-11-20T06:51:18;94492.25;;;4.63;100.00
2000;BME280;1001;48.87406500;9.59633600;2022-11-20T06:53:45;94492.03;;;4.64;100.00
2000;BME280;1001;48.87406500;9.59633600;2022-11-20T06:56:11;94501.56;;;4.70;100.00
2000;BME280;1001;48.87406500;9.59633600;2022-11-20T06:58:38;94499.38;;;4.67;100.00
2000;BME280;1001;48.87406500;9.59633600;2022-11-20T07:01:07;94499.97;;;4.69;100.00
2000;BME280;1001;48.87406500;9.59633600;2022-11-20T07:03:34;94501.34;;;4.72;100.00
2000;BME280;1001;48.87406500;9.59633600;2022-11-20T07:06:01;94505.72;;;4.71;100.00
2000;BME280;1001;48.87406500;9.59633600;2022-11-20T07:08:30;94502.94;;;4.73;100.00
2000;BME280;1001;48.87406500;9.59633600;2022-11-20T07:10:59;94505.91;;;4.76;100.00
2000;BME280;1001;48.87406500;9.59633600;2022-11-20T07:13:26;94497.78;;;4.73;100.00
2000;BME280;1001;48.87406500;9.59633600;2022-11-20T07:15:53;94497.78;;;4.73;100.00
2000;BME280;1001;48.87406500;9.59633600;2022-11-20T07:18:20;94500.97;;;4.68;100.00
2000;BME280;1001;48.87406500;9.59633600;2022-11-20T07:20:47;94500.34;;;4.73;100.00
2000;BME280;1001;48.87406500;9.59633600;2022-11-20T07:23:14;94502.97;;;4.66;100.00
2000;BME280;1001;48.87406500;9.59633600;2022-11-20T07:25:42;94501.75;;;4.69;100.00
2000;BME280;1001;48.87406500;9.59633600;2022-11-20T07:28:10;94509.69;;;4.74;100.00
2000;BME280;1001;48.87406500;9.59633600;2022-11-20T07:30:37;94510.91;;;4.71;100.00
2000;BME280;1001;48.87406500;9.59633600;2022-11-20T07:33:04;94509.34;;;4.70;100.00
2000;BME280;1001;48.87406500;9.59633600;2022-11-20T07:35:31;94515.47;;;4.76;100.00
2000;BME280;1001;48.87406500;9.59633600;2022-11-20T07:37:58;94511.72;;;4.72;100.00
2000;BME280;1001;48.87406500;9.59633600;2022-11-20T07:40:25;94521.66;;;4.75;100.00
2000;BME280;1001;48.87406500;9.59633600;2022-11-20T07:42:54;94510.47;;;4.81;100.00
2000;BME280;1001;48.87406500;9.59633600;2022-11-20T07:45:22;94512.47;;;4.79;100.00
2000;BME280;1001;48.87406500;9.59633600;2022-11-20T07:47:49;94508.28;;;4.78;100.00
2000;BME280;1001;48.87406500;9.59633600;2022-11-20T07:50:16;94510.84;;;4.85;100.00
2000;BME280;1001;48.87406500;9.59633600;2022-11-20T07:52:43;94515.59;;;4.94;100.00
2000;BME280;1001;48.87406500;9.59633600;2022-11-20T07:55:10;94520.94;;;4.93;100.00
2000;BME280;1001;48.87406500;9.59633600;2022-11-20T07:57:37;94528.53;;;4.94;100.00
2000;BME280;1001;48.87406500;9.59633600;2022-11-20T08:00:08;94509.03;;;4.92;100.00
2000;BME280;1001;48.87406500;9.59633600;2022-11-20T08:02:37;94529.25;;;5.08;100.00
2000;BME280;1001;48.87406500;9.59633600;2022-11-20T08:05:04;94523.09;;;5.02;100.00
2000;BME280;1001;48.87406500;9.59633600;2022-11-20T08:07:35;94524.88;;;5.08;100.00
2000;BME280;1001;48.87406500;9.59633600;2022-11-20T08:10:02;94528.03;;;5.10;100.00
2000;BME280;1001;48.87406500;9.59633600;2022-11-20T08:12:29;94536.44;;;5.06;100.00
2000;BME280;1001;48.87406500;9.59633600;2022-11-20T08:15:14;94531.03;;;5.07;100.00
2000;BME280;1001;48.87406500;9.59633600;2022-11-20T08:17:41;94517.78;;;4.91;100.00
2000;BME280;1001;48.87406500;9.59633600;2022-11-20T08:20:14;94533.03;;;5.05;100.00
2000;BME280;1001;48.87406500;9.59633600;2022-11-20T08:22:46;94529.28;;;5.01;100.00
2000;BME280;1001;48.87406500;9.59633600;2022-11-20T08:25:36;94531.50;;;4.98;100.00
2000;BME280;1001;48.87406500;9.59633600;2022-11-20T08:35:49;94536.75;;;4.85;100.00
2000;BME280;1001;48.87406500;9.59633600;2022-11-20T08:39:22;94531.59;;;4.78;100.00
2000;BME280;1001;48.87406500;9.59633600;2022-11-20T08:42:34;94541.09;;;4.91;100.00
2000;BME280;1001;48.87406500;9.59633600;2022-11-20T08:45:46;94531.75;;;4.83;100.00
2000;BME280;1001;48.87406500;9.59633600;2022-11-20T08:55:48;94529.06;;;5.03;100.00
2000;BME280;1001;48.87406500;9.59633600;2022-11-20T09:02:14;94536.50;;;4.93;100.00
2000;BME280;1001;48.87406500;9.59633600;2022-11-20T09:08:27;94533.66;;;5.01;100.00
2000;BME280;1001;48.87406500;9.59633600;2022-11-20T09:32:28;94548.00;;;5.03;100.00
2000;BME280;1001;48.87406500;9.59633600;2022-11-20T10:09:52;94569.41;;;5.23;100.00
2000;BME280;1001;48.87406500;9.59633600;2022-11-20T10:47:49;94556.44;;;5.55;100.00
2000;BME280;1001;48.87406500;9.59633600;2022-11-20T10:51:27;94557.81;;;5.57;100.00
2000;BME280;1001;48.87406500;9.59633600;2022-11-20T11:01:57;94557.66;;;5.52;100.00
2000;BME280;1001;48.87406500;9.59633600;2022-11-20T11:05:16;94553.50;;;5.44;100.00
2000;BME280;1001;48.87406500;9.59633600;2022-11-20T11:08:03;94555.91;;;5.46;100.00
2000;BME280;1001;48.87406500;9.59633600;2022-11-20T11:11:32;94548.72;;;5.48;100.00
2000;BME280;1001;48.87406500;9.59633600;2022-11-20T11:17:28;94551.94;;;5.43;100.00
2000;BME280;1001;48.87406500;9.59633600;2022-11-20T11:20:39;94552.09;;;5.48;100.00
2000;BME280;1001;48.87406500;9.59633600;2022-11-20T11:23:44;94548.25;;;5.58;100.00
2000;BME280;1001;48.87406500;9.59633600;2022-11-20T11:27:03;94548.31;;;5.51;100.00
2000;BME280;1001;48.87406500;9.59633600;2022-11-20T11:31:36;94546.88;;;5.55;100.00
2000;BME280;1001;48.87406500;9.59633600;2022-11-20T11:36:28;94533.94;;;5.48;100.00
2000;BME280;1001;48.87406500;9.59633600;2022-11-20T11:39:03;94520.81;;;5.43;100.00
2000;BME280;1001;48.87406500;9.59633600;2022-11-20T11:42:13;94515.00;;;5.48;100.00
2000;BME280;1001;48.87406500;9.59633600;2022-11-20T11:45:39;94524.09;;;5.57;100.00
2000;BME280;1001;48.87406500;9.59633600;2022-11-20T11:48:57;94519.16;;;5.49;100.00
2000;BME280;1001;48.87406500;9.59633600;2022-11-20T11:52:10;94511.19;;;5.50;100.00
2000;BME280;1001;48.87406500;9.59633600;2022-11-20T11:55:22;94510.97;;;5.52;100.00
2000;BME280;1001;48.87406500;9.59633600;2022-11-20T11:58:39;94510.66;;;5.67;100.00
2000;BME280;1001;48.87406500;9.59633600;2022-11-20T12:01:33;94516.31;;;5.82;100.00
2000;BME280;1001;48.87406500;9.59633600;2022-11-20T12:04:20;94516.75;;;5.79;100.00
2000;BME280;1001;48.87406500;9.59633600;2022-11-20T12:18:07;94511.25;;;6.30;100.00
2000;BME280;1001;48.87406500;9.59633600;2022-11-20T12:20:53;94511.84;;;6.32;100.00
2000;BME280;1001;48.87406500;9.59633600;2022-11-20T12:27:49;94511.19;;;6.18;100.00
2000;BME280;1001;48.87406500;9.59633600;2022-11-20T12:31:19;94507.25;;;6.34;100.00
2000;BME280;1001;48.87406500;9.59633600;2022-11-20T12:40:45;94500.22;;;6.52;100.00
2000;BME280;1001;48.87406500;9.59633600;2022-11-20T12:43:21;94497.44;;;6.36;100.00
2000;BME280;1001;48.87406500;9.59633600;2022-11-20T12:46:18;94491.81;;;6.39;100.00
2000;BME280;1001;48.87406500;9.59633600;2022-11-20T12:49:12;94496.84;;;6.34;100.00
2000;BME280;1001;48.87406500;9.59633600;2022-11-20T12:55:00;94501.69;;;6.48;100.00
2000;BME280;1001;48.87406500;9.59633600;2022-11-20T12:57:36;94503.72;;;6.58;100.00
2000;BME280;1001;48.87406500;9.59633600;2022-11-20T13:00:13;94494.47;;;6.80;100.00
2000;BME280;1001;48.87406500;9.59633600;2022-11-20T13:03:03;94504.75;;;7.05;100.00
2000;BME280;1001;48.87406500;9.59633600;2022-11-20T13:05:40;94500.28;;;6.94;100.00
2000;BME280;1001;48.87406500;9.59633600;2022-11-20T13:08:16;94502.56;;;7.02;100.00
2000;BME280;1001;48.87406500;9.59633600;2022-11-20T13:10:50;94494.78;;;7.02;100.00
2000;BME280;1001;48.87406500;9.59633600;2022-11-20T13:13:57;94492.31;;;7.07;100.00
2000;BME280;1001;48.87406500;9.59633600;2022-11-20T13:16:39;94481.66;;;6.97;100.00
2000;BME280;1001;48.87406500;9.59633600;2022-11-20T13:19:34;94474.00;;;7.02;100.00
2000;BME280;1001;48.87406500;9.59633600;2022-11-20T13:29:27;94474.16;;;7.30;100.00
2000;BME280;1001;48.87406500;9.59633600;2022-11-20T13:32:18;94478.13;;;7.32;100.00
2000;BME280;1001;48.87406500;9.59633600;2022-11-20T13:35:08;94468.25;;;7.11;99.44
2000;BME280;1001;48.87406500;9.59633600;2022-11-20T13:37:49;94488.44;;;6.98;97.83
2000;BME280;1001;48.87406500;9.59633600;2022-11-20T13:40:34;94483.28;;;6.79;94.44
2000;BME280;1001;48.87406500;9.59633600;2022-11-20T13:43:10;94464.56;;;6.59;93.60
2000;BME280;1001;48.87406500;9.59633600;2022-11-20T13:45:56;94476.53;;;6.60;94.50
2000;BME280;1001;48.87406500;9.59633600;2022-11-20T13:48:26;94474.25;;;6.52;94.59
2000;BME280;1001;48.87406500;9.59633600;2022-11-20T13:51:14;94485.06;;;6.49;94.20
2000;BME280;1001;48.87406500;9.59633600;2022-11-20T13:56:51;94479.41;;;6.41;95.15
2000;BME280;1001;48.87406500;9.59633600;2022-11-20T13:59:46;94469.00;;;6.23;95.11
2000;BME280;1001;48.87406500;9.59633600;2022-11-20T14:02:21;94463.25;;;6.21;95.69
2000;BME280;1001;48.87406500;9.59633600;2022-11-20T14:04:52;94467.84;;;6.37;96.76
2000;BME280;1001;48.87406500;9.59633600;2022-11-20T14:07:22;94461.53;;;6.62;96.81
2000;BME280;1001;48.87406500;9.59633600;2022-11-20T14:09:51;94451.53;;;6.77;94.91
2000;BME280;1001;48.87406500;9.59633600;2022-11-20T14:12:21;94471.69;;;6.94;93.65
2000;BME280;1001;48.87406500;9.59633600;2022-11-20T14:14:49;94458.31;;;6.78;94.05
2000;BME280;1001;48.87406500;9.59633600;2022-11-20T14:17:20;94459.53;;;6.64;95.00
2000;BME280;1001;48.87406500;9.59633600;2022-11-20T14:19:48;94467.03;;;6.54;95.37
2000;BME280;1001;48.87406500;9.59633600;2022-11-20T14:22:19;94460.19;;;6.42;95.16
2000;BME280;1001;48.87406500;9.59633600;2022-11-20T14:24:46;94463.34;;;6.44;96.37
2000;BME280;1001;48.87406500;9.59633600;2022-11-20T14:27:14;94471.59;;;6.41;96.08
2000;BME280;1001;48.87406500;9.59633600;2022-11-20T14:29:45;94469.44;;;6.38;97.62
2000;BME280;1001;48.87406500;9.59633600;2022-11-20T14:32:15;94456.63;;;6.25;96.30
2000;BME280;1001;48.87406500;9.59633600;2022-11-20T14:34:49;94455.31;;;6.34;96.27
2000;BME280;1001;48.87406500;9.59633600;2022-11-20T14:37:19;94443.66;;;6.25;95.84
2000;BME280;1001;48.87406500;9.59633600;2022-11-20T14:39:51;94459.56;;;6.28;96.36
2000;BME280;1001;48.87406500;9.59633600;2022-11-20T14:42:20;94456.31;;;6.33;96.26
2000;BME280;1001;48.87406500;9.59633600;2022-11-20T14:44:48;94444.88;;;6.22;95.23
2000;BME280;1001;48.87406500;9.59633600;2022-11-20T14:47:19;94446.28;;;6.18;93.72
2000;BME280;1001;48.87406500;9.59633600;2022-11-20T14:49:50;94440.38;;;6.11;93.71
2000;BME280;1001;48.87406500;9.59633600;2022-11-20T14:52:20;94443.44;;;6.08;93.50
2000;BME280;1001;48.87406500;9.59633600;2022-11-20T14:54:48;94444.78;;;6.10;94.42
2000;BME280;1001;48.87406500;9.59633600;2022-11-20T14:57:24;94442.72;;;6.01;93.42
2000;BME280;1001;48.87406500;9.59633600;2022-11-20T14:59:51;94446.09;;;6.01;93.27
2000;BME280;1001;48.87406500;9.59633600;2022-11-20T15:02:18;94434.88;;;5.83;93.12
2000;BME280;1001;48.87406500;9.59633600;2022-11-20T15:04:46;94428.66;;;5.66;94.50
2000;BME280;1001;48.87406500;9.59633600;2022-11-20T15:07:24;94426.13;;;5.59;95.21
2000;BME280;1001;48.87406500;9.59633600;2022-11-20T15:10:02;94426.78;;;5.55;96.87
2000;BME280;1001;48.87406500;9.59633600;2022-11-20T15:12:30;94423.19;;;5.56;97.44
2000;BME280;1001;48.87406500;9.59633600;2022-11-20T15:14:57;94406.25;;;5.53;97.55